Time;durP1;ratioP1;P1;durP2;ratioP2;P2;SDS_P1;SDS_P2;PMS_P1;PMS_P2;Temp;Humidity;BMP_temperature;BMP_pressure;BME280_temperature;BME280_humidity;BME280_pressure;Samples;Min_cycle;Max_cycle;Signal;HPM_P1;HPM_P2
2022/12/19 00:01:38;;;;;;;;;;;0.90;99.90;;;;;;5074024;28;19904;-75
2022/12/19 00:04:05;;;;;;;;;;;0.90;99.90;;;;;;5056014;28;19959;-75
2022/12/19 00:06:30;;;;;;;;;;;1.00;99.90;;;;;;5055986;28;19905;-75
2022/12/19 00:08:59;;;;;;;;;;;1.00;99.90;;;;;;5055914;28;19905;-75
2022/12/19 00:11:25;;;;;;;;;;;0.90;99.90;;;;;;5073965;28;19916;-74
2022/12/19 00:13:50;;;;;;;;;;;0.90;99.90;;;;;;5055836;28;19909;-75
2022/12/19 00:16:20;;;;;;;;;;;1.00;99.90;;;;;;5074505;28;19904;-75
2022/12/19 00:18:46;;;;;;;;;;;1.00;99.90;;;;;;5073682;28;19928;-75
2022/12/19 00:21:15;;;;;;;;;;;1.00;99.90;;;;;;5073707;28;19911;-75
2022/12/19 00:23:40;;;;;;;;;;;1.00;99.90;;;;;;5055678;28;19909;-75
2022/12/19 00:26:11;;;;;;;;;;;1.00;99.90;;;;;;5055752;28;19905;-75
2022/12/19 00:28:36;;;;;;;;;;;1.10;99.90;;;;;;5055810;28;19911;-75
2022/12/19 00:31:02;;;;;;;;;;;1.10;99.90;;;;;;5055666;28;19905;-75
2022/12/19 00:33:28;;;;;;;;;;;1.10;99.90;;;;;;5055702;28;20003;-75
2022/12/19 00:36:01;;;;;;;;;;;1.10;99.90;;;;;;5072402;28;19951;-75
2022/12/19 00:38:27;;;;;;;;;;;1.10;99.90;;;;;;5055474;28;20006;-75
2022/12/19 00:40:52;;;;;;;;;;;1.10;99.90;;;;;;5072248;28;19951;-75
2022/12/19 00:43:18;;;;;;;;;;;1.10;99.90;;;;;;5055469;28;19908;-75
2022/12/19 00:45:43;;;;;;;;;;;1.10;99.90;;;;;;5073427;28;20417;-75
2022/12/19 00:48:09;;;;;;;;;;;1.20;99.90;;;;;;5055565;28;19904;-75
2022/12/19 00:50:34;;;;;;;;;;;1.20;99.90;;;;;;5055489;28;19904;-75
2022/12/19 00:53:00;;;;;;;;;;;1.20;99.90;;;;;;5055501;28;19928;-74
2022/12/19 00:55:25;;;;;;;;;;;1.20;99.90;;;;;;5073413;28;19951;-75
2022/12/19 00:57:51;;;;;;;;;;;1.20;99.90;;;;;;5073469;28;19904;-75
2022/12/19 01:00:16;;;;;;;;;;;1.20;99.90;;;;;;5055890;28;19904;-75
2022/12/19 01:02:44;;;;;;;;;;;1.20;99.90;;;;;;5073279;28;20386;-75
2022/12/19 01:05:10;;;;;;;;;;;1.30;99.90;;;;;;5076544;28;19912;-74
2022/12/19 01:07:35;;;;;;;;;;;1.20;99.90;;;;;;5077184;28;19904;-75
2022/12/19 01:10:02;;;;;;;;;;;1.20;99.90;;;;;;5077104;28;19904;-75
2022/12/19 01:12:45;;;;;;;;;;;1.20;99.90;;;;;;5076813;28;20348;-75
2022/12/19 01:15:12;;;;;;;;;;;1.20;99.90;;;;;;5077160;28;19905;-74
2022/12/19 01:17:38;;;;;;;;;;;1.20;99.90;;;;;;5059177;28;19910;-74
2022/12/19 01:20:04;;;;;;;;;;;1.30;99.90;;;;;;5076909;28;19909;-74
2022/12/19 01:22:29;;;;;;;;;;;1.30;99.90;;;;;;5077479;28;19909;-74
2022/12/19 01:24:54;;;;;;;;;;;1.30;99.90;;;;;;5058962;28;19905;-74
2022/12/19 01:27:20;;;;;;;;;;;1.30;99.90;;;;;;5058859;28;19904;-75
2022/12/19 01:29:49;;;;;;;;;;;1.30;99.90;;;;;;5077353;28;20010;-75
2022/12/19 01:32:14;;;;;;;;;;;1.40;99.90;;;;;;5075546;28;19961;-74
2022/12/19 01:34:40;;;;;;;;;;;1.40;99.90;;;;;;5076857;28;19904;-74
2022/12/19 01:37:05;;;;;;;;;;;1.40;99.90;;;;;;5058806;28;20006;-75
2022/12/19 01:39:31;;;;;;;;;;;1.50;99.90;;;;;;5076603;28;19911;-74
2022/12/19 01:41:56;;;;;;;;;;;1.50;99.90;;;;;;5076525;28;20003;-75
2022/12/19 01:44:23;;;;;;;;;;;1.50;99.90;;;;;;5076518;28;20260;-74
2022/12/19 01:46:50;;;;;;;;;;;1.50;99.90;;;;;;5058541;28;20302;-75
2022/12/19 01:49:23;;;;;;;;;;;1.50;99.90;;;;;;5075168;28;19959;-74
2022/12/19 01:51:50;;;;;;;;;;;1.50;99.90;;;;;;5075153;28;19908;-75
2022/12/19 01:54:20;;;;;;;;;;;1.60;99.90;;;;;;5075023;28;19904;-75
2022/12/19 01:56:48;;;;;;;;;;;1.60;99.90;;;;;;5058326;28;19954;-74
2022/12/19 01:59:24;;;;;;;;;;;1.70;99.90;;;;;;5076153;28;20439;-75
2022/12/19 02:01:51;;;;;;;;;;;1.70;99.90;;;;;;5058145;28;20388;-75
2022/12/19 02:04:18;;;;;;;;;;;1.70;99.90;;;;;;5076047;28;19909;-74
2022/12/19 02:06:43;;;;;;;;;;;1.80;99.90;;;;;;5058198;28;19905;-74
2022/12/19 02:09:10;;;;;;;;;;;1.80;99.90;;;;;;5076339;28;19904;-74
2022/12/19 02:11:35;;;;;;;;;;;1.90;99.90;;;;;;5076071;28;19962;-74
2022/12/19 02:14:01;;;;;;;;;;;2.00;99.90;;;;;;5076113;28;19908;-74
2022/12/19 02:16:36;;;;;;;;;;;2.00;99.90;;;;;;5074836;28;20351;-75
2022/12/19 02:19:14;;;;;;;;;;;2.10;99.90;;;;;;5075768;28;20012;-74
2022/12/19 02:21:40;;;;;;;;;;;2.20;99.90;;;;;;5057983;28;19908;-74
2022/12/19 02:24:15;;;;;;;;;;;2.20;99.90;;;;;;5076348;28;20361;-74
2022/12/19 02:26:46;;;;;;;;;;;2.30;99.90;;;;;;5075842;28;20424;-74
2022/12/19 02:29:19;;;;;;;;;;;2.30;99.90;;;;;;5075768;28;19904;-74
2022/12/19 02:31:52;;;;;;;;;;;3.40;99.90;;;;;;5075952;28;20002;-74
2022/12/19 02:34:22;;;;;;;;;;;2.50;99.90;;;;;;5075616;28;19912;-74
2022/12/19 02:36:51;;;;;;;;;;;3.70;99.90;;;;;;5075934;28;19905;-75
2022/12/19 02:39:22;;;;;;;;;;;2.60;99.90;;;;;;5075394;28;19908;-74
2022/12/19 02:41:50;;;;;;;;;;;2.70;99.90;;;;;;5075717;28;19904;-74
2022/12/19 02:44:27;;;;;;;;;;;2.70;99.90;;;;;;5057425;28;19959;-75
2022/12/19 02:46:53;;;;;;;;;;;2.70;99.90;;;;;;5075417;28;19908;-75
2022/12/19 02:49:18;;;;;;;;;;;2.80;99.90;;;;;;5057274;28;19904;-74
2022/12/19 02:51:44;;;;;;;;;;;2.90;99.90;;;;;;5057353;28;20006;-74
2022/12/19 02:54:09;;;;;;;;;;;2.90;99.90;;;;;;5075217;28;19959;-74
2022/12/19 02:56:50;;;;;;;;;;;2.90;99.90;;;;;;5075153;28;20314;-74
2022/12/19 02:59:27;;;;;;;;;;;3.00;99.90;;;;;;5057079;28;19970;-74
2022/12/19 03:01:59;;;;;;;;;;;3.00;99.90;;;;;;5057191;28;20007;-74
2022/12/19 03:04:43;;;;;;;;;;;3.10;99.90;;;;;;5074927;28;19913;-74
2022/12/19 03:07:18;;;;;;;;;;;3.00;99.90;;;;;;5074990;28;19905;-74
2022/12/19 03:09:51;;;;;;;;;;;3.10;99.90;;;;;;5074958;28;19909;-74
2022/12/19 03:14:56;;;;;;;;;;;3.10;99.90;;;;;;5095231;28;19927;-77
2022/12/19 03:17:22;;;;;;;;;;;3.20;99.90;;;;;;5096930;28;19904;-77
2022/12/19 03:19:47;;;;;;;;;;;3.20;99.90;;;;;;5096900;28;19958;-77
2022/12/19 03:22:13;;;;;;;;;;;3.20;99.90;;;;;;5096399;28;19911;-77
2022/12/19 03:24:41;;;;;;;;;;;3.20;99.90;;;;;;5078247;28;19911;-77
2022/12/19 03:27:26;;;;;;;;;;;3.30;99.90;;;;;;5078111;28;19904;-77
2022/12/19 03:29:53;;;;;;;;;;;3.30;99.90;;;;;;5078683;28;19954;-77
2022/12/19 03:32:25;;;;;;;;;;;3.30;99.90;;;;;;5078698;28;19915;-76
2022/12/19 03:34:55;;;;;;;;;;;3.40;99.90;;;;;;5078672;28;20358;-76
2022/12/19 03:37:23;;;;;;;;;;;3.40;99.90;;;;;;5096555;28;19904;-76
2022/12/19 03:39:53;;;;;;;;;;;3.50;99.90;;;;;;5096723;28;19908;-76
2022/12/19 03:45:08;;;;;;;;;;;3.60;99.90;;;;;;5097239;28;19915;-76
2022/12/19 03:47:45;;;;;;;;;;;3.50;99.90;;;;;;5095673;28;19926;-76
2022/12/19 03:50:14;;;;;;;;;;;3.60;99.90;;;;;;5094378;28;19958;-76
2022/12/19 03:52:39;;;;;;;;;;;3.70;99.90;;;;;;5095382;28;19908;-76
2022/12/19 03:55:09;;;;;;;;;;;3.70;99.90;;;;;;5076864;28;19911;-76
2022/12/19 03:57:56;;;;;;;;;;;3.70;99.90;;;;;;5094991;28;19994;-76
2022/12/19 04:00:23;;;;;;;;;;;3.80;99.90;;;;;;5077001;28;20321;-76
2022/12/19 04:02:51;;;;;;;;;;;3.80;99.90;;;;;;5077012;28;19915;-76
2022/12/19 04:05:21;;;;;;;;;;;3.80;99.90;;;;;;5094985;28;19958;-76
2022/12/19 04:07:48;;;;;;;;;;;3.80;99.90;;;;;;5076760;28;20314;-76
2022/12/19 04:10:15;;;;;;;;;;;3.90;99.90;;;;;;5094771;28;20267;-76
2022/12/19 04:12:44;;;;;;;;;;;3.90;99.90;;;;;;5095277;28;19904;-75
2022/12/19 04:15:09;;;;;;;;;;;3.90;99.90;;;;;;5076431;28;19964;-76
2022/12/19 04:17:48;;;;;;;;;;;4.00;99.90;;;;;;5077034;28;19904;-76
2022/12/19 04:20:15;;;;;;;;;;;4.00;99.90;;;;;;5094677;28;19995;-76
2022/12/19 04:22:44;;;;;;;;;;;4.00;99.90;;;;;;5094603;28;19908;-75
2022/12/19 04:25:09;;;;;;;;;;;;;;;;;;5076431;28;19940;-75
2022/12/19 04:27:37;;;;;;;;;;;4.00;99.90;;;;;;5094516;28;19911;-76
2022/12/19 04:30:03;;;;;;;;;;;4.00;99.90;;;;;;5094555;28;19947;-75
2022/12/19 04:32:31;;;;;;;;;;;4.10;99.90;;;;;;5094424;28;19904;-76
2022/12/19 04:34:57;;;;;;;;;;;4.10;99.90;;;;;;5094436;28;19904;-76
2022/12/19 04:37:23;;;;;;;;;;;4.20;99.90;;;;;;5076078;28;19904;-75
2022/12/19 04:39:48;;;;;;;;;;;4.30;99.90;;;;;;5093603;28;19910;-76
2022/12/19 04:42:14;;;;;;;;;;;4.30;99.90;;;;;;5094254;28;19904;-75
2022/12/19 04:44:39;;;;;;;;;;;4.30;99.90;;;;;;5076265;28;19908;-76
2022/12/19 04:47:05;;;;;;;;;;;4.30;99.90;;;;;;5094641;28;19904;-76
2022/12/19 04:49:30;;;;;;;;;;;4.40;99.90;;;;;;5076500;28;19904;-76
2022/12/19 04:51:58;;;;;;;;;;;4.30;99.90;;;;;;5094364;28;19904;-76
2022/12/19 04:54:24;;;;;;;;;;;4.40;99.90;;;;;;5076893;28;19911;-76
2022/12/19 04:56:51;;;;;;;;;;;4.40;99.90;;;;;;5095081;28;19908;-76
2022/12/19 04:59:16;;;;;;;;;;;4.40;99.90;;;;;;5095270;28;19985;-76
2022/12/19 05:01:42;;;;;;;;;;;4.40;99.90;;;;;;5077117;28;20350;-76
2022/12/19 05:04:07;;;;;;;;;;;4.40;99.90;;;;;;5076974;28;19908;-76
2022/12/19 05:06:32;;;;;;;;;;;4.40;99.90;;;;;;5095174;28;19908;-76
2022/12/19 05:08:58;;;;;;;;;;;4.40;99.90;;;;;;5094979;28;20425;-76
2022/12/19 05:11:23;;;;;;;;;;;4.50;99.90;;;;;;5095236;28;19910;-76
2022/12/19 05:13:49;;;;;;;;;;;4.60;99.90;;;;;;5094711;28;19916;-76
2022/12/19 05:16:14;;;;;;;;;;;4.60;99.90;;;;;;5094733;28;19903;-76
2022/12/19 05:18:40;;;;;;;;;;;4.70;99.90;;;;;;5094446;28;19933;-76
2022/12/19 05:21:06;;;;;;;;;;;4.70;99.90;;;;;;5094802;28;19911;-76
2022/12/19 05:23:32;;;;;;;;;;;4.70;99.90;;;;;;5076298;28;19915;-76
2022/12/19 05:25:58;;;;;;;;;;;4.80;99.90;;;;;;5075880;28;19904;-76
2022/12/19 05:28:24;;;;;;;;;;;4.80;99.90;;;;;;5094722;28;20358;-76
2022/12/19 05:30:49;;;;;;;;;;;4.80;99.90;;;;;;5094756;28;19915;-76
2022/12/19 05:33:15;;;;;;;;;;;4.90;99.90;;;;;;5094758;28;20384;-76
2022/12/19 05:35:43;;;;;;;;;;;5.10;99.90;;;;;;5094755;28;19904;-76
2022/12/19 05:38:11;;;;;;;;;;;5.10;99.90;;;;;;5076644;28;19953;-76
2022/12/19 05:40:39;;;;;;;;;;;5.10;99.90;;;;;;5094698;28;19911;-76
2022/12/19 05:43:05;;;;;;;;;;;5.20;99.90;;;;;;5094635;28;19908;-76
2022/12/19 05:45:31;;;;;;;;;;;5.30;99.90;;;;;;5094688;28;20385;-76
2022/12/19 05:47:56;;;;;;;;;;;5.30;99.90;;;;;;5076447;28;19911;-76
2022/12/19 05:50:22;;;;;;;;;;;5.40;99.90;;;;;;5094586;28;19974;-76
2022/12/19 05:52:47;;;;;;;;;;;5.40;99.90;;;;;;5097881;28;19911;-76
2022/12/19 05:55:12;;;;;;;;;;;5.40;99.90;;;;;;5079462;28;20049;-76
2022/12/19 05:57:38;;;;;;;;;;;5.50;99.90;;;;;;5079013;28;19904;-76
2022/12/19 06:00:04;;;;;;;;;;;5.40;99.90;;;;;;5097536;28;20350;-76
2022/12/19 06:02:32;;;;;;;;;;;5.50;99.90;;;;;;5097782;28;19916;-76
2022/12/19 06:04:58;;;;;;;;;;;5.60;99.90;;;;;;5097300;28;19911;-76
2022/12/19 06:07:23;;;;;;;;;;;5.60;99.90;;;;;;5096854;28;19998;-76
2022/12/19 06:09:49;;;;;;;;;;;5.70;99.90;;;;;;5097083;28;19946;-77
2022/12/19 06:12:14;;;;;;;;;;;5.70;99.90;;;;;;5079843;28;19904;-76
2022/12/19 06:14:40;;;;;;;;;;;5.70;99.90;;;;;;5097373;28;19995;-77
2022/12/19 06:17:05;;;;;;;;;;;5.80;99.90;;;;;;5097443;28;19911;-76
2022/12/19 06:19:31;;;;;;;;;;;5.80;99.90;;;;;;5096447;28;19904;-77
2022/12/19 06:22:00;;;;;;;;;;;5.80;99.90;;;;;;5096994;28;19904;-76
2022/12/19 06:24:26;;;;;;;;;;;5.90;99.90;;;;;;5079683;28;19908;-77
2022/12/19 06:26:51;;;;;;;;;;;6.00;99.90;;;;;;5079987;28;19904;-77
2022/12/19 06:29:17;;;;;;;;;;;6.00;99.90;;;;;;5096664;28;20274;-77
2022/12/19 06:31:42;;;;;;;;;;;6.00;99.90;;;;;;5097249;28;19943;-77
2022/12/19 06:34:11;;;;;;;;;;;6.00;99.90;;;;;;5078098;28;19904;-76
2022/12/19 06:36:36;;;;;;;;;;;6.10;99.90;;;;;;5097091;28;20347;-76
2022/12/19 06:39:03;;;;;;;;;;;6.10;99.90;;;;;;5096690;28;19911;-76
2022/12/19 06:44:16;;;;;;;;;;;6.20;99.90;;;;;;5096318;28;19915;-76
2022/12/19 06:46:42;;;;;;;;;;;6.30;99.90;;;;;;5077925;28;19940;-77
2022/12/19 06:49:08;;;;;;;;;;;6.30;99.90;;;;;;5077275;28;20386;-77
2022/12/19 06:51:33;;;;;;;;;;;6.30;99.90;;;;;;5077530;28;19942;-76
2022/12/19 06:53:58;;;;;;;;;;;6.30;99.90;;;;;;5077997;28;19904;-76
2022/12/19 06:56:24;;;;;;;;;;;6.40;99.90;;;;;;5077830;28;19904;-77
2022/12/19 06:58:50;;;;;;;;;;;6.40;99.90;;;;;;5077355;28;19943;-78
2022/12/19 07:01:23;;;;;;;;;;;6.50;99.90;;;;;;5095125;28;19911;-78
2022/12/19 07:03:48;;;;;;;;;;;6.40;99.90;;;;;;5095506;28;20358;-78
2022/12/19 07:06:14;;;;;;;;;;;6.40;99.90;;;;;;5095411;28;19911;-78
2022/12/19 07:08:40;;;;;;;;;;;6.50;99.90;;;;;;5076851;28;20337;-78
2022/12/19 07:11:08;;;;;;;;;;;6.50;99.90;;;;;;5094902;28;20358;-77
2022/12/19 07:13:33;;;;;;;;;;;6.50;99.90;;;;;;5093734;28;19912;-78
2022/12/19 07:16:00;;;;;;;;;;;6.50;99.90;;;;;;5095618;28;20240;-77
2022/12/19 07:18:26;;;;;;;;;;;6.60;99.90;;;;;;5093388;28;19949;-77
2022/12/19 07:20:51;;;;;;;;;;;6.60;99.90;;;;;;5093776;28;19926;-77
2022/12/19 07:23:19;;;;;;;;;;;6.60;99.90;;;;;;5076426;28;19955;-77
2022/12/19 07:25:44;;;;;;;;;;;6.60;99.90;;;;;;5095137;28;19911;-77
2022/12/19 07:28:10;;;;;;;;;;;6.70;99.90;;;;;;5094696;28;19903;-78
2022/12/19 07:30:36;;;;;;;;;;;6.70;99.90;;;;;;5093482;28;19904;-77
2022/12/19 07:33:04;;;;;;;;;;;6.80;99.90;;;;;;5094706;28;19962;-77
2022/12/19 07:35:30;;;;;;;;;;;6.80;99.90;;;;;;5094589;28;19908;-78
2022/12/19 07:38:02;;;;;;;;;;;6.70;99.90;;;;;;5076521;28;20019;-77
2022/12/19 07:40:31;;;;;;;;;;;6.80;99.90;;;;;;5095505;28;19904;-78
2022/12/19 07:43:00;;;;;;;;;;;6.80;99.90;;;;;;5094693;28;20388;-77
2022/12/19 07:45:26;;;;;;;;;;;6.90;99.90;;;;;;5076874;28;20277;-77
2022/12/19 07:47:51;;;;;;;;;;;6.90;99.90;;;;;;5094606;28;20003;-77
2022/12/19 07:50:16;;;;;;;;;;;6.90;99.90;;;;;;5094222;28;19904;-78
2022/12/19 07:52:42;;;;;;;;;;;7.80;99.90;;;;;;5076193;28;19911;-77
2022/12/19 07:55:10;;;;;;;;;;;7.00;99.90;;;;;;5094553;28;19904;-77
2022/12/19 07:57:36;;;;;;;;;;;7.00;99.90;;;;;;5094091;28;20281;-78
2022/12/19 08:00:02;;;;;;;;;;;7.00;99.90;;;;;;5075539;28;19904;-78
2022/12/19 08:02:28;;;;;;;;;;;7.00;99.90;;;;;;5075599;28;19910;-78
2022/12/19 08:04:53;;;;;;;;;;;7.00;99.90;;;;;;5075590;28;20282;-78
2022/12/19 08:07:19;;;;;;;;;;;7.50;99.90;;;;;;5094252;28;20007;-78
2022/12/19 08:09:44;;;;;;;;;;;7.10;99.90;;;;;;5093776;28;19939;-78
2022/12/19 08:12:19;;;;;;;;;;;9.00;99.90;;;;;;5094108;28;20244;-77
2022/12/19 08:14:45;;;;;;;;;;;7.10;99.90;;;;;;5092964;28;20350;-78
2022/12/19 08:17:10;;;;;;;;;;;7.10;99.90;;;;;;5075845;28;19911;-76
2022/12/19 08:19:36;;;;;;;;;;;7.20;99.90;;;;;;5078215;28;19911;-77
2022/12/19 08:22:01;;;;;;;;;;;7.20;99.90;;;;;;5093927;28;19966;-77
2022/12/19 08:24:27;;;;;;;;;;;7.30;99.90;;;;;;5094559;28;19908;-77
2022/12/19 08:26:52;;;;;;;;;;;7.20;99.90;;;;;;5075746;28;19957;-77
2022/12/19 08:29:18;;;;;;;;;;;7.20;99.90;;;;;;5075713;28;19904;-76
2022/12/19 08:31:43;;;;;;;;;;;7.30;99.90;;;;;;5096202;28;19911;-76
2022/12/19 08:34:11;;;;;;;;;;;7.30;99.90;;;;;;5095311;28;20562;-76
2022/12/19 08:36:38;;;;;;;;;;;7.30;99.90;;;;;;5075938;28;20394;-77
2022/12/19 08:39:04;;;;;;;;;;;7.30;99.90;;;;;;5094811;28;20313;-77
2022/12/19 08:41:29;;;;;;;;;;;7.30;99.90;;;;;;5076678;28;19907;-77
2022/12/19 08:43:55;;;;;;;;;;;7.30;99.90;;;;;;5076883;28;19958;-76
2022/12/19 08:46:21;;;;;;;;;;;7.30;99.90;;;;;;5076968;28;20376;-77
2022/12/19 08:48:46;;;;;;;;;;;7.30;99.90;;;;;;5094027;28;19904;-76
2022/12/19 08:51:12;;;;;;;;;;;7.30;99.90;;;;;;5075506;28;19904;-76
2022/12/19 08:53:39;;;;;;;;;;;7.40;99.90;;;;;;5093764;28;20356;-76
2022/12/19 08:56:06;;;;;;;;;;;7.30;99.90;;;;;;5093678;28;19904;-77
2022/12/19 08:58:32;;;;;;;;;;;7.40;99.90;;;;;;5093345;28;19957;-76
2022/12/19 09:01:09;;;;;;;;;;;7.30;99.90;;;;;;5093391;28;19954;-77
2022/12/19 09:03:35;;;;;;;;;;;7.40;99.90;;;;;;5093506;28;19999;-76
2022/12/19 09:06:01;;;;;;;;;;;7.30;99.90;;;;;;5075102;28;20372;-76
2022/12/19 09:08:30;;;;;;;;;;;7.30;99.90;;;;;;5093290;28;19906;-76
2022/12/19 09:11:12;;;;;;;;;;;7.30;99.90;;;;;;5093084;28;19911;-78
2022/12/19 09:13:41;;;;;;;;;;;7.40;99.90;;;;;;5075543;28;19916;-78
2022/12/19 09:16:21;;;;;;;;;;;7.40;99.90;;;;;;5075385;28;20342;-77
2022/12/19 09:18:51;;;;;;;;;;;7.40;99.90;;;;;;5092892;28;19948;-78
2022/12/19 09:21:18;;;;;;;;;;;7.40;99.90;;;;;;5093453;28;19904;-78
2022/12/19 09:23:47;;;;;;;;;;;7.40;99.90;;;;;;5092068;28;19915;-78
2022/12/19 09:26:13;;;;;;;;;;;7.40;99.90;;;;;;5096702;28;20267;-78
2022/12/19 09:28:39;;;;;;;;;;;7.50;99.90;;;;;;5097412;28;19911;-78
2022/12/19 09:31:07;;;;;;;;;;;7.50;99.90;;;;;;5097071;28;19933;-78
2022/12/19 09:33:33;;;;;;;;;;;7.50;99.90;;;;;;5097003;28;19912;-76
2022/12/19 09:35:59;;;;;;;;;;;7.50;99.90;;;;;;5097087;28;19904;-78
2022/12/19 09:38:25;;;;;;;;;;;7.50;99.90;;;;;;5097435;28;20041;-79
2022/12/19 09:41:00;;;;;;;;;;;7.50;99.90;;;;;;5078931;28;20354;-78
2022/12/19 09:43:31;;;;;;;;;;;7.50;99.90;;;;;;5097365;28;19915;-77
2022/12/19 09:46:07;;;;;;;;;;;7.50;99.90;;;;;;5079048;28;20283;-77
2022/12/19 09:48:35;;;;;;;;;;;7.50;99.90;;;;;;5099419;28;19912;-77
2022/12/19 09:51:06;;;;;;;;;;;7.50;99.90;;;;;;5098291;28;20271;-77
2022/12/19 09:53:34;;;;;;;;;;;7.60;99.90;;;;;;5099088;28;20320;-77
2022/12/19 09:56:04;;;;;;;;;;;7.50;99.90;;;;;;5098254;28;19908;-78
2022/12/19 09:58:33;;;;;;;;;;;7.60;99.90;;;;;;5097708;28;19914;-77
2022/12/19 10:01:01;;;;;;;;;;;7.50;99.90;;;;;;5079443;28;19910;-77
2022/12/19 10:03:38;;;;;;;;;;;7.70;99.90;;;;;;5096999;28;20264;-77
2022/12/19 10:06:17;;;;;;;;;;;7.70;99.90;;;;;;5095525;28;19935;-77
2022/12/19 10:08:43;;;;;;;;;;;7.70;99.90;;;;;;5096637;28;19911;-77
2022/12/19 10:11:14;;;;;;;;;;;7.70;99.90;;;;;;5078884;28;19904;-77
2022/12/19 10:13:42;;;;;;;;;;;7.70;99.90;;;;;;5095543;28;19919;-77
2022/12/19 10:16:11;;;;;;;;;;;7.90;99.90;;;;;;5097323;28;19908;-77
2022/12/19 10:18:51;;;;;;;;;;;7.90;99.90;;;;;;5078780;28;20054;-77
2022/12/19 10:21:35;;;;;;;;;;;8.00;99.90;;;;;;5096817;28;19908;-77
2022/12/19 10:24:00;;;;;;;;;;;8.00;99.90;;;;;;5078763;28;20285;-77
2022/12/19 10:28:41;;;;;;;6.18;2.55;;;8.00;99.90;;;;;;5112449;27;20303;-77
2022/12/19 10:31:27;;;;;;;7.28;2.30;;;8.00;99.90;;;;;;5112528;28;20028;-76
2022/12/19 10:34:20;;;;;;;7.63;2.45;;;8.10;99.90;;;;;;5110999;28;20437;-76
2022/12/19 10:36:53;;;;;;;6.32;3.45;;;8.10;99.90;;;;;;5111568;28;20027;-76
2022/12/19 10:39:30;;;;;;;7.03;2.38;;;8.10;99.90;;;;;;5111731;28;20028;-76
2022/12/19 10:42:06;;;;;;;4.55;2.20;;;8.10;99.90;;;;;;5111852;28;20047;-77
2022/12/19 10:44:37;;;;;;;5.50;2.30;;;8.00;99.90;;;;;;5111595;28;20495;-76
2022/12/19 10:47:14;;;;;;;6.15;2.00;;;9.20;99.90;;;;;;5110272;28;20436;-77
2022/12/19 10:49:41;;;;;;;8.00;2.78;;;8.10;99.90;;;;;;5111191;28;20025;-76
2022/12/19 10:52:08;;;;;;;5.55;2.63;;;8.10;99.90;;;;;;5111767;28;20371;-76
2022/12/19 10:54:47;;;;;;;5.47;2.10;;;8.10;99.90;;;;;;5109914;28;20024;-76
2022/12/19 10:57:17;;;;;;;;;;;8.10;99.90;;;;;;5110751;28;20418;-77
2022/12/19 10:59:52;;;;;;;6.20;2.45;;;8.10;99.90;;;;;;5110821;28;19904;-77
2022/12/19 11:02:44;;;;;;;4.22;2.42;;;8.10;99.90;;;;;;5110751;28;20102;-78
2022/12/19 11:05:29;;;;;;;6.97;2.35;;;8.20;99.90;;;;;;5110718;28;20024;-78
2022/12/19 11:08:06;;;;;;;7.00;2.97;;;8.10;99.90;;;;;;5110810;28;20023;-78
2022/12/19 11:10:55;;;;;;;4.45;2.35;;;8.20;99.90;;;;;;5110641;28;20019;-78
2022/12/19 11:13:37;;;;;;;5.65;2.05;;;8.20;99.90;;;;;;5110421;28;20024;-77
2022/12/19 11:16:05;;;;;;;4.20;2.35;;;8.20;99.90;;;;;;5109142;28;20047;-78
2022/12/19 11:18:43;;;;;;;6.68;2.17;;;8.30;99.90;;;;;;5109063;28;20016;-78
2022/12/19 11:21:19;;;;;;;2.85;1.67;;;8.30;99.90;;;;;;5110506;28;20024;-78
2022/12/19 11:24:00;;;;;;;11.73;2.03;;;8.30;99.90;;;;;;5110262;28;20049;-78
2022/12/19 11:26:34;;;;;;;4.90;2.28;;;8.30;99.90;;;;;;5108769;28;20027;-77
2022/12/19 11:29:04;;;;;;;5.05;2.10;;;8.30;99.90;;;;;;5110011;28;20024;-77
2022/12/19 11:31:35;;;;;;;6.72;2.58;;;8.40;99.90;;;;;;5110953;28;20020;-77
2022/12/19 11:34:04;;;;;;;4.32;2.30;;;8.30;99.90;;;;;;5109784;28;20057;-77
2022/12/19 11:36:48;;;;;;;4.30;2.30;;;8.40;99.90;;;;;;5110556;28;20383;-78
2022/12/19 11:39:41;;;;;;;3.80;2.58;;;8.40;99.90;;;;;;5099807;28;20490;-76
2022/12/19 11:42:27;;;;;;;5.45;2.47;;;8.40;99.90;;;;;;5095813;28;20028;-75
2022/12/19 11:45:00;;;;;;;6.55;2.58;;;8.40;99.90;;;;;;5095514;28;20016;-75
2022/12/19 11:47:44;;;;;;;6.50;2.53;;;8.40;99.90;;;;;;5095535;28;20046;-76
2022/12/19 11:50:13;;;;;;;4.95;2.47;;;8.40;99.90;;;;;;5096713;28;20023;-76
2022/12/19 11:52:57;;;;;;;6.22;2.60;;;8.40;99.90;;;;;;5096633;28;20020;-75
2022/12/19 11:55:50;;;;;;;4.43;2.22;;;8.50;99.90;;;;;;5095194;28;20024;-75
2022/12/19 11:58:15;;;;;;;7.97;2.42;;;8.50;99.90;;;;;;5097125;28;20371;-76
2022/12/19 12:01:23;;;;;;;7.47;2.72;;;8.50;99.90;;;;;;5095165;28;20016;-76
2022/12/19 12:03:51;;;;;;;7.15;2.88;;;8.50;99.90;;;;;;5094976;28;20024;-77
2022/12/19 12:06:17;;;;;;;3.50;2.20;;;8.60;99.90;;;;;;5094852;28;20068;-75
2022/12/19 12:09:21;;;;;;;10.52;3.28;;;8.60;99.90;;;;;;5095357;28;20114;-75
2022/12/19 12:12:19;;;;;;;5.28;1.77;;;8.70;99.90;;;;;;5095249;28;20407;-75
2022/12/19 12:15:26;;;;;;;3.45;1.90;;;8.70;99.90;;;;;;5094137;28;20038;-75
2022/12/19 12:18:26;;;;;;;5.40;2.35;;;8.70;99.90;;;;;;5094941;28;20067;-75
2022/12/19 12:21:03;;;;;;;3.13;1.80;;;8.70;99.90;;;;;;5092290;28;20043;-76
2022/12/19 12:24:02;;;;;;;4.28;1.67;;;8.70;99.90;;;;;;5094686;28;20483;-76
2022/12/19 12:26:44;;;;;;;5.00;2.13;;;8.80;99.90;;;;;;5094520;28;20047;-76
2022/12/19 12:29:40;;;;;;;5.63;1.92;;;8.80;99.90;;;;;;5095896;28;20024;-75
2022/12/19 12:32:33;;;;;;;4.50;1.10;;;8.80;99.90;;;;;;5095892;28;20031;-75
2022/12/19 12:35:24;;;;;;;3.63;1.50;;;8.80;99.90;;;;;;5094627;28;20056;-76
2022/12/19 12:38:28;;;;;;;3.80;1.08;;;8.90;99.90;;;;;;5096268;28;20031;-76
2022/12/19 12:41:05;;;;;;;4.13;1.58;;;8.90;99.90;;;;;;5095807;28;20120;-76
2022/12/19 12:43:58;;;;;;;3.03;1.17;;;9.00;99.90;;;;;;5095683;28;20026;-76
2022/12/19 12:46:30;;;;;;;1.67;0.73;;;8.90;99.90;;;;;;5095288;28;20024;-75
2022/12/19 12:49:12;;;;;;;5.07;1.60;;;9.10;99.90;;;;;;5093928;28;20502;-76
2022/12/19 12:51:38;;;;;;;3.22;1.42;;;9.00;99.90;;;;;;5093382;28;20380;-76
2022/12/19 12:54:08;;;;;;;6.53;1.58;;;9.10;99.90;;;;;;5095083;28;20091;-75
2022/12/19 12:56:35;;;;;;;4.25;1.55;;;9.00;99.90;;;;;;5094197;28;20023;-76
2022/12/19 12:59:20;;;;;;;2.60;1.13;;;9.10;99.90;;;;;;5095183;28;20073;-76
2022/12/19 13:01:52;;;;;;;4.25;1.92;;;9.20;99.90;;;;;;5095728;28;20028;-76
2022/12/19 13:04:25;;;;;;;3.42;1.60;;;9.20;99.90;;;;;;5094977;28;20095;-77
2022/12/19 13:07:14;;;;;;;4.10;1.25;;;9.20;99.90;;;;;;5093335;28;20031;-77
2022/12/19 13:09:40;;;;;;;2.10;0.80;;;9.20;99.90;;;;;;5094658;28;20062;-77
2022/12/19 13:15:30;;;;;;;3.75;1.73;;;9.20;99.90;;;;;;5094487;28;20057;-77
2022/12/19 13:17:55;;;;;;;5.68;1.20;;;9.30;99.90;;;;;;5094436;28;20028;-76
2022/12/19 13:20:43;;;;;;;4.65;1.10;;;9.30;99.90;;;;;;5094316;28;20028;-76
2022/12/19 13:23:20;;;;;;;4.90;1.17;;;9.30;99.90;;;;;;5093510;28;20490;-77
2022/12/19 13:25:51;;;;;;;2.83;1.38;;;9.30;99.90;;;;;;5094269;28;20032;-76
2022/12/19 13:28:20;;;;;;;2.63;1.23;;;9.30;99.90;;;;;;5094326;28;20028;-77
2022/12/19 13:31:05;;;;;;;4.13;0.98;;;;;;;;;;5092983;28;20571;-77
2022/12/19 13:33:52;;;;;;;4.30;1.25;;;9.20;99.90;;;;;;5094195;28;20028;-77
2022/12/19 13:37:02;;;;;;;1.48;0.75;;;9.20;99.90;;;;;;5094090;28;20023;-77
2022/12/19 13:39:53;;;;;;;4.50;1.13;;;9.20;99.90;;;;;;5094355;28;20030;-77
2022/12/19 13:45:29;;;;;;;3.78;1.08;;;9.20;99.90;;;;;;5094934;28;20085;-77
2022/12/19 13:48:01;;;;;;;3.22;1.27;;;9.20;99.90;;;;;;5092810;28;20020;-77
2022/12/19 13:50:36;;;;;;;2.63;0.88;;;9.20;99.90;;;;;;5094045;28;20106;-77
2022/12/19 13:53:21;;;;;;;3.15;1.40;;;9.20;99.90;;;;;;5094439;28;20035;-77
2022/12/19 13:55:54;;;;;;;3.60;1.10;;;9.20;99.90;;;;;;5094362;28;20020;-77
2022/12/19 13:58:25;;;;;;;2.95;1.40;;;9.20;99.90;;;;;;5094396;28;20375;-78
2022/12/19 14:00:54;;;;;;;3.70;0.93;;;9.20;99.90;;;;;;5094102;28;20016;-76
2022/12/19 14:03:25;;;;;;;5.20;0.90;;;9.20;99.90;;;;;;5094073;28;20483;-76
2022/12/19 14:05:50;;;;;;;5.68;1.08;;;9.20;99.90;;;;;;5094305;28;20468;-76
2022/12/19 14:08:26;;;;;;;2.67;0.90;;;9.20;99.90;;;;;;5093626;28;20054;-77
2022/12/19 14:10:52;;;;;;;1.75;1.08;;;9.20;99.90;;;;;;5093774;28;20107;-77
2022/12/19 14:16:08;;;;;;;4.47;1.00;;;9.30;99.90;;;;;;5093563;28;20027;-76
2022/12/19 14:18:36;;;;;;;3.88;0.47;;;9.30;99.90;;;;;;5093555;28;20024;-76
2022/12/19 14:21:12;;;;;;;5.97;0.88;;;;;;;;;;5093568;28;20020;-77
2022/12/19 14:23:38;;;;;;;4.32;0.80;;;9.30;99.90;;;;;;5093592;28;20031;-77
2022/12/19 14:26:21;;;;;;;3.95;0.80;;;9.30;99.90;;;;;;5092086;28;20008;-76
2022/12/19 14:29:03;;;;;;;2.80;0.55;;;9.30;99.90;;;;;;5092772;28;20028;-77
2022/12/19 14:31:33;;;;;;;1.95;0.60;;;9.30;99.90;;;;;;5092158;28;20024;-77
2022/12/19 14:33:58;;;;;;;1.35;0.57;;;9.30;99.90;;;;;;5091976;28;20161;-77
2022/12/19 14:36:30;;;;;;;4.53;0.93;;;9.40;99.90;;;;;;5093358;28;20489;-77
2022/12/19 14:38:56;;;;;;;3.03;1.10;;;9.40;99.90;;;;;;5094199;28;20069;-77
2022/12/19 14:44:49;;;;;;;1.65;0.90;;;9.40;99.90;;;;;;5093423;28;20039;-77
2022/12/19 14:47:35;;;;;;;6.35;1.80;;;9.40;99.90;;;;;;5093061;28;20058;-77